Time;durP1;ratioP1;P1;durP2;ratioP2;P2;SDS_P1;SDS_P2;PMS_P1;PMS_P2;Temp;Humidity;BMP_temperature;BMP_pressure;BME280_temperature;BME280_humidity;BME280_pressure;Samples;Min_cycle;Max_cycle;Signal;HPM_P1;HPM_P2
2022/06/21 00:00:11;;;;;;;4.03;1.83;;;11.70;99.90;;;;;;5052278;28;20051;-76
2022/06/21 00:02:37;;;;;;;2.88;1.60;;;11.70;99.90;;;;;;5043253;28;20107;-74
2022/06/21 00:05:03;;;;;;;;;;;11.70;99.90;;;;;;5052366;28;20048;-75
2022/06/21 00:07:30;;;;;;;5.35;1.50;;;11.60;99.90;;;;;;5053517;28;19924;-75
2022/06/21 00:09:56;;;;;;;5.90;1.77;;;11.60;99.90;;;;;;5053178;28;20041;-76
2022/06/21 00:12:22;;;;;;;6.07;1.98;;;11.60;99.90;;;;;;5051272;28;20052;-75
2022/06/21 00:14:48;;;;;;;5.30;2.15;;;11.60;99.90;;;;;;5052745;28;20382;-76
2022/06/21 00:17:16;;;;;;;;;;;11.50;99.90;;;;;;5052373;28;20056;-76
2022/06/21 00:19:43;;;;;;;4.25;1.83;;;11.50;99.90;;;;;;5051794;28;19924;-76
2022/06/21 00:22:18;;;;;;;3.97;1.58;;;11.50;99.90;;;;;;5042530;28;20098;-76
2022/06/21 00:24:45;;;;;;;4.07;1.70;;;11.80;99.90;;;;;;5048724;28;20044;-76
2022/06/21 00:27:17;;;;;;;3.90;1.70;;;11.40;99.90;;;;;;5052103;28;20059;-76
2022/06/21 00:29:43;;;;;;;3.33;1.73;;;11.30;99.90;;;;;;5035682;28;20047;-77
2022/06/21 00:32:13;;;;;;;;;;;11.30;99.90;;;;;;5051516;28;20108;-76
2022/06/21 00:34:39;;;;;;;5.18;2.00;;;11.30;99.90;;;;;;5042525;28;19928;-76
2022/06/21 00:37:05;;;;;;;3.45;1.83;;;11.30;99.90;;;;;;5052106;28;20055;-76
2022/06/21 00:39:30;;;;;;;;;;;11.20;99.90;;;;;;5051477;28;20037;-76
2022/06/21 00:42:01;;;;;;;4.47;1.92;;;11.20;99.90;;;;;;5052251;28;20327;-76
2022/06/21 00:44:39;;;;;;;4.25;1.90;;;11.20;99.90;;;;;;5042566;28;20115;-76
2022/06/21 00:47:14;;;;;;;4.15;1.80;;;11.10;99.90;;;;;;5041392;28;20045;-76
2022/06/21 00:49:51;;;;;;;3.10;1.83;;;11.10;99.90;;;;;;5038022;28;20040;-77
2022/06/21 00:52:25;;;;;;;5.57;2.17;;;11.10;99.90;;;;;;5038632;28;20080;-76
2022/06/21 00:55:02;;;;;;;3.00;1.60;;;11.10;99.90;;;;;;5050977;28;20128;-77
2022/06/21 00:57:37;;;;;;;3.72;1.92;;;11.10;99.90;;;;;;5051282;28;20052;-76
2022/06/21 01:00:24;;;;;;;5.05;1.90;;;11.10;99.90;;;;;;5049962;28;20049;-77
2022/06/21 01:02:50;;;;;;;3.85;2.00;;;11.00;99.90;;;;;;5051728;28;20079;-77
2022/06/21 01:05:16;;;;;;;;;;;11.00;99.90;;;;;;5051531;28;20036;-76
2022/06/21 01:07:42;;;;;;;3.47;1.88;;;11.00;99.90;;;;;;5050632;28;19916;-77
2022/06/21 01:10:12;;;;;;;;;;;11.00;99.90;;;;;;5051691;28;20116;-77
2022/06/21 01:12:52;;;;;;;4.55;2.22;;;10.90;99.90;;;;;;5049493;28;19916;-76
2022/06/21 01:15:23;;;;;;;4.68;2.00;;;10.90;99.90;;;;;;5050743;28;20037;-76
2022/06/21 01:17:52;;;;;;;4.07;1.98;;;10.90;99.90;;;;;;5051694;28;20041;-76
2022/06/21 01:20:22;;;;;;;2.80;1.80;;;10.80;99.90;;;;;;5041338;28;20040;-76
2022/06/21 01:23:03;;;;;;;4.18;2.25;;;10.80;99.90;;;;;;5041305;28;20041;-76
2022/06/21 01:26:09;;;;;;;5.10;2.05;;;10.80;99.90;;;;;;5041540;28;20080;-76
2022/06/21 01:28:35;;;;;;;5.75;2.60;;;10.80;99.90;;;;;;5047208;28;20123;-76
2022/06/21 01:31:01;;;;;;;7.28;2.20;;;10.80;99.90;;;;;;5051207;28;20045;-76
2022/06/21 01:33:28;;;;;;;;;;;10.70;99.90;;;;;;5042498;28;20055;-76
2022/06/21 01:35:58;;;;;;;3.03;1.73;;;10.70;99.90;;;;;;5050919;28;20016;-76
2022/06/21 01:38:32;;;;;;;3.78;1.83;;;10.90;99.90;;;;;;5051078;28;20063;-76
2022/06/21 01:41:07;;;;;;;3.20;1.60;;;10.80;99.90;;;;;;5050863;28;20432;-77
2022/06/21 01:43:34;;;;;;;3.03;1.70;;;10.60;99.90;;;;;;5045913;28;20434;-76
2022/06/21 01:46:07;;;;;;;2.60;1.27;;;10.50;99.90;;;;;;5052119;28;20646;-76
2022/06/21 01:48:38;;;;;;;3.20;1.63;;;10.50;99.90;;;;;;5034913;28;20071;-76
2022/06/21 01:51:17;;;;;;;3.97;1.45;;;10.50;99.90;;;;;;5046394;28;20124;-76
2022/06/21 01:53:44;;;;;;;4.13;1.70;;;10.40;99.90;;;;;;5051441;28;20048;-76
2022/06/21 01:56:15;;;;;;;3.15;1.60;;;10.40;99.90;;;;;;5050494;28;20048;-76
2022/06/21 01:58:47;;;;;;;3.60;1.80;;;10.30;99.90;;;;;;5041445;28;20036;-76
2022/06/21 02:01:16;;;;;;;2.63;1.52;;;10.30;99.90;;;;;;5049810;28;20033;-76
2022/06/21 02:03:47;;;;;;;7.00;2.10;;;10.40;99.90;;;;;;5050280;28;20037;-78
2022/06/21 02:06:14;;;;;;;4.13;2.08;;;10.30;99.90;;;;;;5045051;28;20036;-77
2022/06/21 02:08:48;;;;;;;3.78;2.13;;;10.30;99.90;;;;;;5044612;28;20033;-76
2022/06/21 02:11:24;;;;;;;4.00;2.20;;;10.70;99.90;;;;;;5054632;28;20041;-76
2022/06/21 02:16:42;;;;;;;5.88;2.70;;;10.20;99.90;;;;;;5044616;28;20072;-77
2022/06/21 02:19:31;;;;;;;3.50;2.10;;;10.20;99.90;;;;;;5054231;28;20053;-77
2022/06/21 02:21:57;;;;;;;3.13;2.10;;;10.20;99.90;;;;;;5051776;28;20045;-77
2022/06/21 02:24:25;;;;;;;;;;;10.10;99.90;;;;;;5054515;28;20037;-77
2022/06/21 02:26:52;;;;;;;4.90;2.50;;;10.10;99.90;;;;;;5054449;28;19923;-77
2022/06/21 02:29:20;;;;;;;4.65;2.47;;;10.20;99.90;;;;;;5054339;28;20045;-77
2022/06/21 02:31:46;;;;;;;5.28;2.65;;;10.10;99.90;;;;;;5053464;28;20036;-77
2022/06/21 02:34:34;;;;;;;5.05;2.30;;;10.10;99.90;;;;;;5045459;28;20473;-77
2022/06/21 02:37:02;;;;;;;5.22;2.58;;;10.30;99.90;;;;;;5041587;28;20059;-77
2022/06/21 02:39:30;;;;;;;4.47;2.70;;;10.10;99.90;;;;;;5053609;28;20076;-75
2022/06/21 02:42:06;;;;;;;3.78;2.20;;;10.80;99.90;;;;;;5045405;28;20055;-75
2022/06/21 02:44:41;;;;;;;4.32;2.40;;;10.50;99.90;;;;;;5044999;28;20032;-75
2022/06/21 02:47:22;;;;;;;4.47;2.55;;;10.10;99.90;;;;;;5053292;28;20045;-74
2022/06/21 02:50:02;;;;;;;2.70;1.95;;;10.30;99.90;;;;;;5044868;28;20049;-76
2022/06/21 02:52:38;;;;;;;10.10;2.67;;;10.10;99.90;;;;;;5037875;28;20401;-76
2022/06/21 02:55:04;;;;;;;;;;;10.30;99.90;;;;;;5053992;28;20040;-76
2022/06/21 02:57:37;;;;;;;3.35;1.90;;;10.00;99.90;;;;;;5054146;28;19944;-76
2022/06/21 03:00:06;;;;;;;3.75;2.28;;;10.00;99.90;;;;;;5043219;28;20046;-76
2022/06/21 03:02:35;;;;;;;4.97;2.40;;;10.10;99.90;;;;;;5052977;28;20044;-76
2022/06/21 03:05:07;;;;;;;5.78;2.53;;;10.10;99.90;;;;;;5053810;28;20121;-76
2022/06/21 03:07:38;;;;;;;4.25;2.63;;;10.20;99.90;;;;;;5043316;28;20048;-77
2022/06/21 03:10:07;;;;;;;4.22;2.40;;;10.20;99.90;;;;;;5044094;28;20053;-76
2022/06/21 03:12:35;;;;;;;3.90;2.13;;;10.30;99.90;;;;;;5053508;28;20370;-77
2022/06/21 03:15:09;;;;;;;5.68;2.15;;;10.70;99.90;;;;;;5043050;28;20045;-77
2022/06/21 03:17:41;;;;;;;2.78;1.90;;;10.30;99.90;;;;;;5059750;28;20049;-76
2022/06/21 03:20:14;;;;;;;4.80;2.30;;;10.30;99.90;;;;;;5046274;28;20515;-75
2022/06/21 03:22:45;;;;;;;3.40;2.00;;;10.40;99.90;;;;;;5061114;28;20041;-76
2022/06/21 03:25:42;;;;;;;3.05;1.65;;;10.30;99.90;;;;;;5064704;28;20051;-75
2022/06/21 03:28:33;;;;;;;3.50;1.83;;;10.30;99.90;;;;;;5059316;28;21567;-76
2022/06/21 03:31:10;;;;;;;3.83;2.20;;;10.30;99.90;;;;;;5063344;28;20791;-76
2022/06/21 03:33:38;;;;;;;3.03;2.00;;;10.30;99.90;;;;;;5062339;28;20043;-76
2022/06/21 03:36:09;;;;;;;2.65;1.70;;;10.30;99.90;;;;;;5062199;28;20041;-76
2022/06/21 03:38:37;;;;;;;3.33;1.85;;;10.30;99.90;;;;;;5062047;28;20040;-76
2022/06/21 03:43:54;;;;;;;2.35;1.58;;;10.60;99.90;;;;;;5039809;28;20052;-76
2022/06/21 03:46:30;;;;;;;5.55;2.13;;;10.40;99.90;;;;;;5045191;28;20044;-76
2022/06/21 03:49:14;;;;;;;5.57;1.70;;;10.40;99.90;;;;;;5042162;28;20511;-72
2022/06/21 03:51:44;;;;;;;3.45;1.65;;;10.40;99.90;;;;;;5036070;28;20477;-75
2022/06/21 03:54:24;;;;;;;3.50;1.80;;;10.40;99.90;;;;;;5057007;28;20041;-74
2022/06/21 03:56:58;;;;;;;3.10;2.00;;;10.40;99.90;;;;;;5040439;28;20041;-74
2022/06/21 03:59:41;;;;;;;3.75;2.00;;;10.60;99.90;;;;;;5062602;28;20051;-74
2022/06/21 04:02:25;;;;;;;4.07;2.30;;;10.40;99.90;;;;;;5064570;28;20058;-72
2022/06/21 04:04:56;;;;;;;3.67;2.13;;;10.40;99.90;;;;;;5043115;28;20129;-71
2022/06/21 04:07:29;;;;;;;3.65;2.10;;;10.40;99.90;;;;;;5061945;28;20048;-72
2022/06/21 04:10:20;;;;;;;3.83;2.10;;;10.30;99.90;;;;;;5062365;28;20094;-71
2022/06/21 04:12:54;;;;;;;4.32;2.20;;;10.50;99.90;;;;;;5058859;28;20454;-71
2022/06/21 04:15:47;;;;;;;4.38;3.00;;;10.30;99.90;;;;;;5062490;28;20451;-71
2022/06/21 04:18:17;;;;;;;5.75;2.70;;;10.30;99.90;;;;;;5051001;28;20049;-71
2022/06/21 04:21:13;;;;;;;3.78;2.53;;;10.40;99.90;;;;;;5052841;28;20037;-71
2022/06/21 04:24:05;;;;;;;3.80;2.58;;;10.40;99.90;;;;;;5051792;28;20045;-73
2022/06/21 04:26:36;;;;;;;3.92;2.60;;;10.50;99.90;;;;;;5041712;28;20059;-74
2022/06/21 04:29:33;;;;;;;4.38;2.72;;;10.50;99.90;;;;;;5052656;28;20068;-73
2022/06/21 04:32:04;;;;;;;;;;;10.50;99.90;;;;;;5039158;28;20123;-73
2022/06/21 04:34:36;;;;;;;5.10;2.97;;;10.50;99.90;;;;;;5052100;28;19921;-71
2022/06/21 04:37:07;;;;;;;4.55;3.20;;;10.60;99.90;;;;;;5041914;28;20493;-71
2022/06/21 04:39:54;;;;;;;5.97;3.20;;;10.70;99.90;;;;;;5033585;28;20045;-73
2022/06/21 04:42:35;;;;;;;5.18;3.13;;;10.70;99.90;;;;;;5051274;28;20049;-72
2022/06/21 04:45:07;;;;;;;6.13;3.03;;;10.80;99.90;;;;;;5047238;28;20544;-71
2022/06/21 04:47:40;;;;;;;5.25;3.45;;;10.90;99.90;;;;;;5034477;28;20063;-71
2022/06/21 04:50:46;;;;;;;4.57;3.35;;;10.90;99.90;;;;;;5038997;28;20366;-71
2022/06/21 04:53:25;;;;;;;7.13;3.53;;;11.00;99.90;;;;;;4992232;28;20088;-71
2022/06/21 04:56:13;;;;;;;6.63;4.07;;;11.10;99.90;;;;;;4993020;28;20046;-71
2022/06/21 04:58:39;;;;;;;6.82;4.25;;;11.20;99.90;;;;;;5018578;28;20060;-71
2022/06/21 05:01:29;;;;;;;7.50;4.30;;;11.30;99.90;;;;;;5041110;28;20072;-72
2022/06/21 05:03:52;;;;;;;6.25;3.97;;;11.30;99.90;;;;;;5051400;28;20049;-72
2022/06/21 05:06:18;;;;;;;7.93;4.50;;;11.50;99.90;;;;;;5050195;28;20048;-73
2022/06/21 05:08:47;;;;;;;10.18;5.03;;;11.70;99.90;;;;;;5033597;28;20045;-73
2022/06/21 05:11:13;;;;;;;10.73;4.90;;;11.90;99.90;;;;;;5050147;28;20037;-72
2022/06/21 05:13:48;;;;;;;6.15;4.22;;;12.00;99.90;;;;;;5049543;28;20029;-73
2022/06/21 05:16:20;;;;;;;7.93;4.10;;;12.10;99.90;;;;;;5048110;28;20032;-72
2022/06/21 05:19:00;;;;;;;8.27;4.30;;;12.20;99.90;;;;;;5057067;28;20071;-74
2022/06/21 05:21:33;;;;;;;6.40;3.95;;;12.40;99.90;;;;;;5048646;28;20048;-72
2022/06/21 05:23:59;;;;;;;6.18;4.20;;;13.50;99.90;;;;;;5048307;28;20049;-73
2022/06/21 05:26:39;;;;;;;6.85;3.60;;;12.60;99.90;;;;;;5049848;28;20037;-72
2022/06/21 05:29:14;;;;;;;6.38;3.53;;;12.70;99.90;;;;;;5033132;28;20052;-76
2022/06/21 05:31:44;;;;;;;7.00;3.90;;;13.00;99.90;;;;;;5040030;28;20468;-72
2022/06/21 05:34:16;;;;;;;8.63;3.55;;;12.90;99.90;;;;;;5023049;28;20131;-77
2022/06/21 05:36:52;;;;;;;7.97;3.42;;;13.00;99.90;;;;;;5049209;28;20392;-75
2022/06/21 05:39:22;;;;;;;6.22;3.42;;;13.00;99.90;;;;;;5039309;28;20048;-75
2022/06/21 05:41:52;;;;;;;7.82;3.97;;;13.10;99.90;;;;;;5035837;28;20044;-87
2022/06/21 05:44:32;;;;;;;7.53;4.30;;;13.20;99.90;;;;;;5037095;28;20128;-76
2022/06/21 05:47:08;;;;;;;5.82;3.35;;;13.30;99.90;;;;;;5050313;28;20045;-71
2022/06/21 05:49:36;;;;;;;5.22;3.63;;;13.40;99.90;;;;;;5049200;28;20111;-75
2022/06/21 05:52:06;;;;;;;8.77;4.07;;;13.50;99.90;;;;;;5037401;28;20084;-74
2022/06/21 05:54:51;;;;;;;6.75;4.13;;;13.60;99.90;;;;;;5048665;28;20467;-73
2022/06/21 05:57:23;;;;;;;5.15;3.40;;;13.70;99.90;;;;;;5033621;28;20095;-74
2022/06/21 05:59:48;;;;;;;7.53;3.63;;;13.80;99.90;;;;;;5033567;28;20090;-73
2022/06/21 06:02:18;;;;;;;;;;;13.90;99.90;;;;;;5038111;28;20440;-73
2022/06/21 06:04:56;;;;;;;6.78;3.78;;;13.90;99.90;;;;;;5048937;28;20273;-74
2022/06/21 06:07:40;;;;;;;7.55;4.10;;;14.10;99.90;;;;;;5033071;28;20046;-74
2022/06/21 06:10:08;;;;;;;7.90;4.13;;;14.00;99.90;;;;;;5036536;28;20048;-75
2022/06/21 06:12:38;;;;;;;6.57;3.80;;;14.00;99.90;;;;;;5048959;28;20435;-72
2022/06/21 06:15:17;;;;;;;6.57;4.50;;;14.10;99.90;;;;;;5049961;28;20045;-71
2022/06/21 06:17:59;;;;;;;6.40;3.88;;;14.00;99.90;;;;;;5040065;28;20421;-73
2022/06/21 06:20:43;;;;;;;5.68;3.67;;;14.00;99.90;;;;;;5047509;28;20094;-72
2022/06/21 06:23:21;;;;;;;5.80;3.83;;;14.00;99.90;;;;;;5039895;28;20053;-73
2022/06/21 06:25:52;;;;;;;6.50;3.95;;;14.10;99.90;;;;;;5040581;28;20052;-73
2022/06/21 06:28:27;;;;;;;8.52;4.50;;;14.10;99.90;;;;;;5046858;28;20484;-74
2022/06/21 06:31:14;;;;;;;9.00;3.72;;;14.20;99.90;;;;;;5035092;28;20068;-75
2022/06/21 06:33:44;;;;;;;6.72;3.20;;;14.30;99.90;;;;;;5050731;28;20048;-76
2022/06/21 06:36:36;;;;;;;5.13;3.53;;;14.20;99.90;;;;;;5049763;28;20052;-73
2022/06/21 06:39:13;;;;;;;7.38;3.65;;;14.30;99.90;;;;;;5047859;28;20170;-76
2022/06/21 06:42:12;;;;;;;5.63;3.55;;;14.30;99.90;;;;;;5040676;28;20048;-76
2022/06/21 06:44:50;;;;;;;5.80;3.15;;;14.40;99.90;;;;;;5046776;28;20098;-76
2022/06/21 06:47:25;;;;;;;5.65;3.65;;;14.40;99.90;;;;;;5037162;28;20052;-76
2022/06/21 06:50:20;;;;;;;8.88;3.63;;;14.50;99.90;;;;;;5040956;28;20041;-76
2022/06/21 06:52:51;;;;;;;7.65;3.97;;;14.70;99.90;;;;;;5041875;28;20033;-76
2022/06/21 06:55:25;;;;;;;6.03;3.78;;;14.80;99.90;;;;;;5053574;28;20393;-76
2022/06/21 06:57:57;;;;;;;16.00;4.78;;;14.80;99.90;;;;;;5053870;28;20052;-76
2022/06/21 07:00:29;;;;;;;6.38;3.40;;;15.00;99.90;;;;;;5052279;28;20528;-76
2022/06/21 07:03:40;;;;;;;6.15;3.17;;;15.10;99.90;;;;;;5042659;28;20373;-76
2022/06/21 07:06:34;;;;;;;7.05;4.78;;;15.40;99.90;;;;;;4990862;28;20506;-76
2022/06/21 07:09:21;;;;;;;10.20;3.55;;;15.90;99.90;;;;;;5042076;28;20065;-74
2022/06/21 07:11:54;;;;;;;5.43;3.53;;;16.30;99.90;;;;;;5051323;28;20060;-74
2022/06/21 07:14:24;;;;;;;6.43;2.72;;;16.60;99.90;;;;;;5052600;28;20171;-75
2022/06/21 07:17:18;;;;;;;6.90;2.90;;;16.80;99.90;;;;;;5038910;28;20060;-75
2022/06/21 07:19:45;;;;;;;5.90;2.97;;;16.90;99.90;;;;;;5046768;28;20411;-75
2022/06/21 07:22:20;;;;;;;7.20;2.90;;;17.10;99.90;;;;;;5043512;28;20056;-75
2022/06/21 07:25:03;;;;;;;6.15;2.97;;;17.20;99.90;;;;;;5053302;28;20056;-75
2022/06/21 07:27:32;;;;;;;4.68;2.65;;;17.20;99.90;;;;;;5052443;28;20079;-75
2022/06/21 07:30:13;;;;;;;5.75;3.25;;;17.40;99.90;;;;;;5053323;28;20622;-75
2022/06/21 07:33:02;;;;;;;5.78;2.50;;;17.60;99.90;;;;;;5038953;28;20071;-75
2022/06/21 07:35:33;;;;;;;4.32;2.35;;;17.60;99.90;;;;;;5042412;28;20091;-75
2022/06/21 07:38:10;;;;;;;6.90;2.80;;;17.80;99.90;;;;;;5053214;28;20041;-75
2022/06/21 07:41:01;;;;;;;5.72;2.67;;;17.70;99.90;;;;;;5049432;28;20127;-76
2022/06/21 07:43:48;;;;;;;6.30;2.75;;;18.00;99.90;;;;;;5053208;28;20073;-75
2022/06/21 07:46:27;;;;;;;7.20;2.92;;;18.80;99.90;;;;;;5052576;28;20041;-76
2022/06/21 07:49:31;;;;;;;4.30;2.20;;;18.90;99.90;;;;;;5039278;28;20041;-75
2022/06/21 07:52:00;;;;;;;5.68;2.38;;;18.50;99.90;;;;;;5034586;28;20057;-75
2022/06/21 07:54:35;;;;;;;6.55;2.50;;;18.80;99.90;;;;;;5052951;28;20134;-75
2022/06/21 07:57:20;;;;;;;5.03;2.03;;;19.60;99.90;;;;;;5048494;28;20041;-75
2022/06/21 08:00:12;;;;;;;5.40;2.45;;;20.60;99.70;;;;;;5050514;28;20037;-75
2022/06/21 08:08:33;;;;;;;5.05;2.03;;;22.20;97.50;;;;;;5051720;28;20489;-75
2022/06/21 08:11:09;;;;;;;4.85;2.05;;;22.70;97.40;;;;;;5038433;28;20048;-75
2022/06/21 08:13:35;;;;;;;3.60;2.00;;;22.80;95.80;;;;;;5042954;28;20044;-75
2022/06/21 08:16:17;;;;;;;4.55;1.92;;;22.90;95.40;;;;;;5041767;28;20116;-75
2022/06/21 08:18:57;;;;;;;4.03;1.75;;;22.40;95.00;;;;;;5043715;28;20045;-74
2022/06/21 08:21:31;;;;;;;4.57;1.98;;;22.50;95.30;;;;;;5060060;28;20045;-74
2022/06/21 08:24:07;;;;;;;3.70;1.80;;;23.00;94.50;;;;;;5056321;28;20052;-74
2022/06/21 08:26:40;;;;;;;5.32;2.00;;;23.60;94.00;;;;;;5058546;28;20029;-76
2022/06/21 08:29:20;;;;;;;4.57;1.73;;;24.00;93.70;;;;;;5044288;28;20507;-74
2022/06/21 08:31:51;;;;;;;4.30;1.92;;;23.50;92.90;;;;;;5061884;28;20033;-75
2022/06/21 08:34:34;;;;;;;5.10;1.90;;;23.40;94.60;;;;;;5038136;28;20064;-74
2022/06/21 08:37:06;;;;;;;5.97;2.00;;;23.70;93.90;;;;;;5039434;28;20045;-74
2022/06/21 08:40:02;;;;;;;2.80;1.40;;;24.00;94.00;;;;;;5062069;28;20032;-75
2022/06/21 08:42:36;;;;;;;4.82;1.77;;;24.00;93.80;;;;;;5038710;28;20090;-75
2022/06/21 08:48:17;;;;;;;4.47;1.53;;;24.10;93.20;;;;;;5058137;28;20041;-74
2022/06/21 08:50:52;;;;;;;3.75;1.50;;;23.50;93.30;;;;;;5042479;28;20102;-74
2022/06/21 08:53:24;;;;;;;5.25;2.00;;;23.90;93.60;;;;;;5044641;28;20119;-74
2022/06/21 08:56:01;;;;;;;6.43;1.92;;;24.20;92.80;;;;;;5041801;28;20051;-74
2022/06/21 08:58:54;;;;;;;4.85;1.80;;;24.00;92.60;;;;;;5036208;28;20529;-74
2022/06/21 09:01:46;;;;;;;3.35;1.80;;;23.70;92.60;;;;;;5055562;28;20412;-74
2022/06/21 09:04:34;;;;;;;4.60;1.90;;;23.10;93.90;;;;;;5060115;28;20052;-74
2022/06/21 09:07:13;;;;;;;3.25;1.42;;;23.70;93.40;;;;;;5039702;28;20056;-74
2022/06/21 09:09:53;;;;;;;3.85;1.65;;;24.50;94.50;;;;;;5042391;28;20078;-74
2022/06/21 09:12:29;;;;;;;4.55;1.85;;;24.60;92.50;;;;;;5054424;28;20278;-75
2022/06/21 09:15:17;;;;;;;6.43;2.37;;;24.50;92.20;;;;;;5041845;28;20048;-75
2022/06/21 09:18:06;;;;;;;3.67;1.70;;;24.20;92.30;;;;;;5054947;28;20412;-75
2022/06/21 09:20:59;;;;;;;4.57;2.00;;;23.40;92.90;;;;;;5051538;28;20519;-73
2022/06/21 09:23:33;;;;;;;3.67;2.08;;;23.20;94.30;;;;;;5041680;28;20052;-75
2022/06/21 09:26:25;;;;;;;5.40;1.85;;;23.50;93.40;;;;;;5051474;28;20060;-75
2022/06/21 09:28:58;;;;;;;4.63;1.88;;;23.40;93.10;;;;;;5047894;28;20045;-75
2022/06/21 09:31:40;;;;;;;3.83;1.80;;;23.40;93.50;;;;;;5050822;28;20128;-75
2022/06/21 09:34:22;;;;;;;5.00;2.08;;;23.10;93.80;;;;;;5039722;28;20056;-75
2022/06/21 09:37:13;;;;;;;5.72;1.75;;;23.40;93.60;;;;;;5047866;28;20102;-75
2022/06/21 09:39:58;;;;;;;3.50;1.42;;;24.20;92.40;;;;;;5051014;28;20123;-75
2022/06/21 09:42:51;;;;;;;3.22;1.35;;;24.80;92.20;;;;;;5039942;28;20070;-75
2022/06/21 09:45:32;;;;;;;3.42;1.30;;;25.60;90.60;;;;;;5050795;28;20072;-75
2022/06/21 09:48:08;;;;;;;3.10;1.42;;;25.90;91.00;;;;;;5050462;28;20041;-75
2022/06/21 09:50:46;;;;;;;2.78;1.25;;;26.10;90.10;;;;;;5051168;28;20145;-75
2022/06/21 09:53:47;;;;;;;3.10;1.42;;;26.40;89.90;;;;;;5040959;28;20044;-75
2022/06/21 09:56:33;;;;;;;3.00;1.33;;;26.60;89.80;;;;;;5033825;28;20052;-75
2022/06/21 09:59:08;;;;;;;3.75;1.40;;;26.80;88.10;;;;;;5050909;28;20115;-75
2022/06/21 10:01:46;;;;;;;3.28;1.45;;;26.60;88.70;;;;;;5039896;28;20045;-75
2022/06/21 10:04:24;;;;;;;2.83;1.40;;;26.30;88.80;;;;;;5041156;28;20075;-74
2022/06/21 10:07:01;;;;;;;4.85;1.55;;;25.50;89.00;;;;;;5041151;28;20045;-74
2022/06/21 10:09:44;;;;;;;4.00;1.45;;;25.30;90.50;;;;;;5049902;28;20095;-75
2022/06/21 10:12:26;;;;;;;4.85;1.85;;;25.40;92.20;;;;;;5050149;28;20041;-76
2022/06/21 10:15:00;;;;;;;4.30;1.40;;;25.90;87.80;;;;;;5035320;28;20183;-74
2022/06/21 10:18:03;;;;;;;3.42;1.33;;;25.60;90.10;;;;;;5039615;28;20065;-75
2022/06/21 10:20:50;;;;;;;4.40;1.50;;;25.80;89.10;;;;;;5050207;28;20053;-75
2022/06/21 10:24:23;;;;;;;3.35;1.50;;;26.20;90.10;;;;;;5039326;28;20036;-76
2022/06/21 10:27:14;;;;;;;3.60;1.65;;;26.70;88.70;;;;;;4944778;28;20055;-75
2022/06/21 10:30:16;;;;;;;3.58;1.58;;;26.90;88.70;;;;;;5008206;28;20041;-75
2022/06/21 10:33:08;;;;;;;4.97;1.65;;;26.80;89.40;;;;;;5044593;28;20045;-75
2022/06/21 10:36:19;;;;;;;4.15;1.80;;;26.90;88.90;;;;;;5054294;28;20045;-75
2022/06/21 10:39:09;;;;;;;3.60;2.00;;;26.80;91.80;;;;;;4996149;28;20059;-75
2022/06/21 10:42:46;;;;;;;5.70;1.90;;;27.00;90.60;;;;;;5053972;28;20047;-75
2022/06/21 10:44:39;;;;;;;6.00;2.10;;;26.60;89.00;;;;;;5053972;28;20045;-74
2022/06/21 10:47:20;;;;;;;4.15;1.70;;;26.20;90.50;;;;;;5050658;28;20045;-75
2022/06/21 10:50:14;;;;;;;5.38;1.88;;;26.60;91.40;;;;;;5043477;28;20519;-75
2022/06/21 10:53:09;;;;;;;4.30;1.73;;;26.40;90.60;;;;;;5036852;28;20061;-75
2022/06/21 11:02:43;;;;;;;4.53;1.40;;;27.00;88.30;;;;;;5049589;28;20135;-74
2022/06/21 11:05:22;;;;;;;5.28;1.67;;;26.80;90.00;;;;;;5050598;28;20158;-74
2022/06/21 11:08:16;;;;;;;3.47;1.85;;;26.70;89.20;;;;;;5040772;28;20053;-75
2022/06/21 11:10:57;;;;;;;3.78;1.60;;;26.70;89.80;;;;;;5043690;28;20037;-74
2022/06/21 11:13:31;;;;;;;3.05;1.50;;;26.60;90.50;;;;;;5043070;28;20434;-74
2022/06/21 11:16:12;;;;;;;4.28;1.50;;;27.20;90.40;;;;;;5049748;28;20489;-74
2022/06/21 11:18:53;;;;;;;3.28;1.63;;;27.30;87.10;;;;;;5053125;28;20086;-75
2022/06/21 11:21:29;;;;;;;3.90;1.70;;;27.20;86.20;;;;;;5052666;28;20663;-75
2022/06/21 11:24:11;;;;;;;3.60;1.27;;;26.90;87.00;;;;;;5053221;28;20076;-75
2022/06/21 11:27:04;;;;;;;4.05;1.60;;;27.00;85.90;;;;;;5042719;28;20037;-74
2022/06/21 11:30:01;;;;;;;2.22;1.10;;;26.60;84.80;;;;;;5050018;28;20036;-75
2022/06/21 11:32:35;;;;;;;2.58;1.20;;;26.30;86.20;;;;;;5040382;28;20133;-71
2022/06/21 11:35:30;;;;;;;2.78;1.30;;;26.50;86.40;;;;;;5052197;28;20037;-72
2022/06/21 11:38:25;;;;;;;4.03;1.65;;;26.50;86.00;;;;;;5049345;28;20481;-70
2022/06/21 11:41:09;;;;;;;3.35;1.40;;;26.70;87.30;;;;;;5046970;28;20466;-70
2022/06/21 11:43:52;;;;;;;2.63;1.27;;;26.60;86.60;;;;;;5049664;28;20108;-67
2022/06/21 11:46:20;;;;;;;4.75;1.35;;;26.80;86.50;;;;;;5034856;28;20456;-68
2022/06/21 11:49:01;;;;;;;2.80;1.40;;;26.60;89.60;;;;;;5057809;28;20125;-68
2022/06/21 11:51:43;;;;;;;3.00;1.30;;;26.90;88.30;;;;;;5050955;28;20485;-67
2022/06/21 11:54:38;;;;;;;3.75;1.40;;;26.80;87.70;;;;;;5034315;28;20041;-70
2022/06/21 11:57:33;;;;;;;2.70;1.20;;;27.00;86.30;;;;;;5029537;28;20057;-69
2022/06/21 12:00:10;;;;;;;2.28;1.10;;;27.00;84.00;;;;;;5051318;28;20045;-69
2022/06/21 12:02:57;;;;;;;2.58;1.23;;;26.80;82.30;;;;;;5050780;28;20044;-69
2022/06/21 12:05:37;;;;;;;2.05;1.13;;;26.50;88.40;;;;;;5048441;28;20113;-67
2022/06/21 12:08:22;;;;;;;3.00;1.20;;;26.20;83.70;;;;;;5050582;28;20979;-68
2022/06/21 12:11:08;;;;;;;4.05;1.30;;;26.20;86.10;;;;;;5051508;28;20041;-68
2022/06/21 12:13:59;;;;;;;3.00;1.40;;;26.40;86.10;;;;;;5050655;28;20047;-68
2022/06/21 12:16:51;;;;;;;2.83;1.15;;;26.60;85.10;;;;;;5051765;28;20052;-69
2022/06/21 12:19:22;;;;;;;3.47;1.40;;;26.30;83.50;;;;;;5049963;28;20136;-69
2022/06/21 12:22:18;;;;;;;3.28;1.40;;;26.00;84.00;;;;;;5034000;28;20405;-69
2022/06/21 12:24:44;;;;;;;;;;;26.10;87.20;;;;;;5051624;28;20045;-69
2022/06/21 12:27:11;;;;;;;2.73;1.30;;;26.00;86.90;;;;;;5045641;28;19936;-67
2022/06/21 12:29:37;;;;;;;3.75;1.35;;;26.10;86.40;;;;;;5053614;28;20046;-67
2022/06/21 12:32:07;;;;;;;3.67;1.40;;;26.30;87.40;;;;;;5061019;28;20492;-69
2022/06/21 12:34:40;;;;;;;3.22;1.13;;;26.30;88.10;;;;;;5040887;28;20157;-68
2022/06/21 12:37:24;;;;;;;2.03;1.25;;;26.20;87.50;;;;;;5042979;28;20052;-69
2022/06/21 12:39:54;;;;;;;3.40;1.60;;;26.40;87.60;;;;;;5058553;28;20039;-67
2022/06/21 12:42:26;;;;;;;5.38;1.60;;;26.50;86.70;;;;;;5041162;28;20533;-66
2022/06/21 12:44:51;;;;;;;4.05;1.88;;;26.40;86.00;;;;;;5062034;28;20041;-66
2022/06/21 12:47:33;;;;;;;4.32;1.90;;;26.50;84.10;;;;;;5063446;28;20047;-67
2022/06/21 12:50:17;;;;;;;3.35;1.52;;;26.10;84.40;;;;;;5051661;28;20404;-66
2022/06/21 12:52:47;;;;;;;3.35;1.42;;;25.90;85.30;;;;;;5058854;28;20043;-66
2022/06/21 12:55:46;;;;;;;4.30;1.52;;;25.90;86.90;;;;;;5037112;28;20052;-66
2022/06/21 12:58:31;;;;;;;5.07;1.65;;;26.00;86.80;;;;;;5053440;28;20052;-66
2022/06/21 13:01:02;;;;;;;5.90;1.75;;;26.10;85.50;;;;;;5061316;28;20045;-68
2022/06/21 13:03:30;;;;;;;4.30;2.15;;;26.10;86.60;;;;;;5060777;28;20045;-67
2022/06/21 13:06:24;;;;;;;6.07;2.30;;;26.00;87.30;;;;;;5042539;28;20388;-67
2022/06/21 13:09:02;;;;;;;3.85;1.70;;;26.30;87.20;;;;;;5059859;28;20067;-67
2022/06/21 13:11:49;;;;;;;5.22;1.67;;;26.30;87.50;;;;;;5060042;28;20064;-68
2022/06/21 13:14:37;;;;;;;4.18;1.67;;;26.40;86.20;;;;;;5054609;28;20090;-66
2022/06/21 13:17:34;;;;;;;3.97;1.58;;;26.70;86.10;;;;;;5014153;28;20188;-66
2022/06/21 13:20:17;;;;;;;;;;;26.70;85.10;;;;;;5033127;28;20053;-66
2022/06/21 13:23:04;;;;;;;3.85;2.03;;;26.70;87.10;;;;;;5046580;28;19925;-66
2022/06/21 13:25:56;;;;;;;5.78;2.00;;;26.90;87.40;;;;;;5045998;28;20037;-67
2022/06/21 13:28:51;;;;;;;2.80;1.80;;;27.20;87.20;;;;;;5026310;28;20136;-67
2022/06/21 13:31:42;;;;;;;5.95;1.92;;;27.10;86.20;;;;;;5031361;28;20045;-66
2022/06/21 13:34:32;;;;;;;3.83;1.88;;;27.20;87.70;;;;;;5043922;28;20136;-67
2022/06/21 13:37:07;;;;;;;4.72;1.83;;;27.20;88.40;;;;;;5045740;28;20049;-67
2022/06/21 13:39:50;;;;;;;4.07;1.80;;;27.10;89.10;;;;;;5031818;28;20396;-66
2022/06/21 13:42:40;;;;;;;3.80;1.95;;;27.00;88.60;;;;;;5046021;28;20130;-67
2022/06/21 13:45:33;;;;;;;8.25;2.20;;;26.50;89.50;;;;;;5025726;28;20049;-67
2022/06/21 13:48:10;;;;;;;4.78;1.90;;;26.70;88.80;;;;;;5039604;28;20053;-67
2022/06/21 13:50:51;;;;;;;5.28;2.10;;;26.50;88.60;;;;;;5041120;28;20045;-67
2022/06/21 13:53:35;;;;;;;4.30;1.90;;;26.30;89.30;;;;;;5029231;28;20049;-66
2022/06/21 13:56:21;;;;;;;3.60;2.10;;;26.00;89.50;;;;;;5031929;28;20048;-67
2022/06/21 13:58:54;;;;;;;4.40;1.67;;;26.00;90.50;;;;;;5049544;28;20036;-70
2022/06/21 14:01:40;;;;;;;3.92;1.73;;;25.90;90.10;;;;;;5046528;28;20412;-67
2022/06/21 14:04:23;;;;;;;4.60;1.83;;;25.80;89.60;;;;;;5048291;28;20090;-66
2022/06/21 14:07:19;;;;;;;4.15;1.70;;;26.00;90.00;;;;;;5051700;28;20374;-65
2022/06/21 14:09:59;;;;;;;4.22;2.05;;;25.80;90.50;;;;;;5048690;28;20041;-66